Time;durP1;ratioP1;P1;durP2;ratioP2;P2;SDS_P1;SDS_P2;PMS_P1;PMS_P2;Temp;Humidity;BMP_temperature;BMP_pressure;BME280_temperature;BME280_humidity;BME280_pressure;Samples;Min_cycle;Max_cycle;Signal;HPM_P1;HPM_P2
2021/03/28 00:01:32;;;;;;;15.55;4.32;;;7.40;64.20;6.30;102532.00;;;;4922040;29;20051;-79
2021/03/28 00:04:01;;;;;;;10.20;3.67;;;7.40;64.40;6.40;102523.00;;;;4936910;28;20109;-79
2021/03/28 00:06:34;;;;;;;11.73;4.18;;;7.40;64.40;6.40;102531.00;;;;4918320;29;20158;-78
2021/03/28 00:09:23;;;;;;;18.27;4.40;;;7.40;65.00;6.40;102537.00;;;;4906621;28;20052;-79
2021/03/28 00:12:33;;;;;;;15.40;5.22;;;7.50;64.80;6.40;102527.00;;;;4936498;28;20055;-79
2021/03/28 00:15:20;;;;;;;17.10;5.50;;;7.50;64.70;6.40;102517.00;;;;4922197;29;20137;-79
2021/03/28 00:17:52;;;;;;;18.52;5.15;;;7.50;65.20;6.40;102525.00;;;;4920142;29;20077;-79
2021/03/28 00:20:18;;;;;;;15.70;4.80;;;7.50;66.20;6.50;102514.00;;;;4935984;29;20051;-79
2021/03/28 00:23:03;;;;;;;14.15;5.00;;;7.50;64.70;6.50;102513.00;;;;4918179;29;20129;-79
2021/03/28 00:25:41;;;;;;;18.02;4.57;;;7.50;65.40;6.50;102513.00;;;;4904263;29;20047;-79
2021/03/28 00:28:30;;;;;;;20.88;5.38;;;7.50;65.50;6.50;102508.00;;;;4921352;29;20048;-79
2021/03/28 00:31:39;;;;;;;14.07;4.53;;;7.60;65.10;6.50;102508.00;;;;4936290;28;20188;-79
2021/03/28 00:34:25;;;;;;;20.80;4.72;;;7.60;65.60;6.50;102510.00;;;;4900594;28;20513;-79
2021/03/28 00:36:58;;;;;;;15.38;4.78;;;7.60;65.30;6.60;102511.00;;;;4904380;29;20126;-79
2021/03/28 00:39:50;;;;;;;14.00;4.88;;;;;6.60;102517.00;;;;4930756;28;20047;-80
2021/03/28 00:42:47;;;;;;;17.20;4.22;;;7.60;65.80;6.60;102512.00;;;;4938669;28;20059;-80
2021/03/28 00:45:40;;;;;;;19.55;4.75;;;7.60;66.90;6.60;102507.00;;;;4920819;29;20103;-80
2021/03/28 00:48:24;;;;;;;15.25;4.50;;;7.60;65.60;6.60;102509.00;;;;4935956;28;20565;-79
2021/03/28 00:51:08;;;;;;;15.13;3.97;;;7.60;66.00;6.60;102512.00;;;;4923288;29;20036;-79
2021/03/28 00:54:12;;;;;;;15.85;4.80;;;7.60;66.60;6.60;102505.00;;;;4920858;28;20071;-79
2021/03/28 00:56:49;;;;;;;17.83;4.25;;;7.60;66.20;6.60;102496.00;;;;4892384;29;20113;-79
2021/03/28 00:59:30;;;;;;;12.68;3.75;;;7.60;67.20;6.60;102508.00;;;;4920582;28;20047;-79
2021/03/28 01:02:26;;;;;;;14.68;4.53;;;7.60;66.70;6.60;102506.00;;;;4887627;28;20062;-79
2021/03/28 01:05:00;;;;;;;17.45;4.50;;;7.60;65.80;6.60;102496.00;;;;4939096;28;20050;-79
2021/03/28 01:07:34;;;;;;;19.83;4.10;;;7.60;66.60;6.60;102490.00;;;;4933794;28;20050;-80
2021/03/28 01:10:38;;;;;;;15.20;4.20;;;7.60;66.50;6.60;102499.00;;;;4933037;28;20051;-79
2021/03/28 01:14:00;;;;;;;13.48;3.58;;;7.60;66.80;6.50;102494.00;;;;4917612;29;20047;-79
2021/03/28 01:17:07;;;;;;;17.88;4.10;;;7.60;67.60;6.50;102492.00;;;;4901251;29;20039;-80
2021/03/28 01:20:15;;;;;;;15.38;4.10;;;7.60;67.90;6.50;102491.00;;;;4920927;28;20047;-79
2021/03/28 01:23:12;;;;;;;16.98;4.10;;;7.50;66.60;6.50;102486.00;;;;4907165;28;20047;-79
2021/03/28 01:26:08;;;;;;;12.70;3.60;;;7.50;66.80;6.40;102491.00;;;;4911837;28;20146;-79
2021/03/28 01:28:55;;;;;;;15.88;3.58;;;7.50;67.00;6.40;102484.00;;;;4934286;28;21086;-79
2021/03/28 01:31:49;;;;;;;16.15;3.53;;;7.50;67.60;6.40;102473.00;;;;4920705;28;20468;-80
2021/03/28 01:34:24;;;;;;;13.80;3.03;;;7.40;67.40;6.30;102487.00;;;;4903180;29;20044;-79
2021/03/28 01:37:19;;;;;;;14.00;3.33;;;7.40;67.50;6.30;102476.00;;;;4918759;29;20047;-79
2021/03/28 01:40:07;;;;;;;9.63;3.65;;;7.40;67.50;6.30;102479.00;;;;4919135;29;20132;-79
2021/03/28 01:42:43;;;;;;;18.05;3.53;;;7.40;68.40;6.30;102477.00;;;;4923861;28;20065;-79
2021/03/28 01:45:49;;;;;;;17.33;3.90;;;7.40;68.10;6.20;102470.00;;;;4930895;28;20470;-79
2021/03/28 01:48:54;;;;;;;11.77;3.10;;;7.30;68.40;6.20;102477.00;;;;4914022;28;20382;-78
2021/03/28 01:52:06;;;;;;;14.27;3.22;;;7.30;69.00;6.20;102473.00;;;;4918762;29;20078;-79
2021/03/28 01:54:58;;;;;;;16.13;3.90;;;7.30;68.60;6.20;102481.00;;;;4936500;28;20039;-79
2021/03/28 01:57:31;;;;;;;12.20;3.38;;;7.30;68.80;6.20;102481.00;;;;4934740;28;20305;-79
2021/03/28 02:00:20;;;;;;;12.90;3.97;;;7.30;69.00;6.20;102485.00;;;;4919400;29;20164;-79
2021/03/28 02:03:39;;;;;;;12.73;2.97;;;;;6.20;102483.00;;;;4905224;29;20513;-79
2021/03/28 02:06:43;;;;;;;14.38;3.85;;;7.30;69.00;6.20;102479.00;;;;4899037;28;20142;-79
2021/03/28 02:09:33;;;;;;;19.25;3.00;;;7.30;68.90;6.20;102477.00;;;;4903038;29;20055;-80
2021/03/28 02:12:05;;;;;;;15.40;3.33;;;7.30;68.40;6.20;102467.00;;;;4896358;29;20522;-79
2021/03/28 02:14:39;;;;;;;17.23;3.47;;;7.30;68.70;6.20;102469.00;;;;4906978;29;20052;-80
2021/03/28 02:17:23;;;;;;;15.38;3.53;;;;;6.20;102469.00;;;;4904277;29;20059;-80
2021/03/28 02:20:24;;;;;;;11.20;3.00;;;7.30;69.40;6.20;102469.00;;;;4886960;29;20044;-80
2021/03/28 02:23:08;;;;;;;11.00;3.25;;;;;6.20;102466.00;;;;4889330;29;20194;-80
2021/03/28 02:25:56;;;;;;;12.30;3.28;;;7.30;69.10;6.20;102466.00;;;;4903545;28;20105;-79
2021/03/28 02:29:00;;;;;;;18.30;3.60;;;7.30;68.90;6.20;102461.00;;;;4918203;29;20054;-80
2021/03/28 02:32:07;;;;;;;12.65;3.35;;;7.30;69.10;6.20;102467.00;;;;4902287;29;20794;-80
2021/03/28 02:34:43;;;;;;;17.00;4.13;;;7.30;69.40;6.20;102462.00;;;;4917956;29;20565;-79
2021/03/28 02:37:37;;;;;;;9.60;3.00;;;7.30;69.80;6.20;102460.00;;;;4912555;29;20741;-79
2021/03/28 02:40:22;;;;;;;14.05;3.60;;;7.20;69.60;6.10;102463.00;;;;4900847;29;20044;-79
2021/03/28 02:43:29;;;;;;;12.80;3.30;;;7.20;69.80;6.10;102459.00;;;;4907447;29;20184;-79
2021/03/28 02:46:25;;;;;;;12.75;3.25;;;7.20;70.60;6.10;102468.00;;;;4920190;29;20050;-79
2021/03/28 02:49:33;;;;;;;21.92;3.70;;;7.20;70.10;6.00;102471.00;;;;4923674;29;20044;-79
2021/03/28 02:52:24;;;;;;;11.95;3.45;;;7.10;69.60;6.00;102479.00;;;;4909033;29;20047;-80
2021/03/28 02:55:19;;;;;;;12.60;2.78;;;7.10;71.20;6.00;102466.00;;;;4924648;28;20047;-79
2021/03/28 02:57:57;;;;;;;18.23;3.45;;;7.10;70.30;6.00;102473.00;;;;4923738;28;20067;-80
2021/03/28 03:00:53;;;;;;;13.50;3.47;;;7.10;69.60;6.00;102470.00;;;;4942126;29;20044;-79
2021/03/28 03:03:42;;;;;;;19.48;3.60;;;7.10;69.80;5.90;102464.00;;;;4906313;29;20087;-80
2021/03/28 03:07:06;;;;;;;17.30;3.28;;;7.10;70.10;5.90;102462.00;;;;4935886;29;20047;-79
2021/03/28 03:10:18;;;;;;;14.52;3.28;;;7.00;70.20;5.90;102447.00;;;;4921720;29;20467;-79
2021/03/28 03:13:04;;;;;;;8.15;3.00;;;7.00;70.40;5.90;102457.00;;;;4912935;29;20139;-80
2021/03/28 03:16:11;;;;;;;13.82;3.78;;;7.00;70.90;5.90;102442.00;;;;4910364;29;20043;-79
2021/03/28 03:19:18;;;;;;;11.98;3.40;;;7.00;70.40;5.80;102449.00;;;;4913544;29;20050;-79
2021/03/28 03:22:15;;;;;;;20.02;3.10;;;6.90;71.50;5.80;102456.00;;;;4927535;29;20089;-80
2021/03/28 03:25:02;;;;;;;9.13;3.00;;;6.90;70.80;5.80;102455.00;;;;4912192;29;20155;-79
2021/03/28 03:28:21;;;;;;;13.73;3.63;;;7.00;70.80;5.80;102453.00;;;;4908149;29;20052;-79
2021/03/28 03:31:20;;;;;;;14.43;3.17;;;7.00;71.70;5.80;102455.00;;;;4912343;29;20051;-79
2021/03/28 03:34:42;;;;;;;15.10;3.42;;;6.90;70.80;5.80;102459.00;;;;4923158;28;20224;-79
2021/03/28 03:37:43;;;;;;;11.55;3.15;;;6.90;70.80;5.80;102472.00;;;;4894634;29;20042;-78
2021/03/28 03:40:35;;;;;;;13.90;3.60;;;7.00;71.00;5.80;102465.00;;;;4906598;29;20058;-80
2021/03/28 03:43:19;;;;;;;15.52;2.92;;;6.90;72.20;5.80;102459.00;;;;4926864;29;20599;-79
2021/03/28 03:46:02;;;;;;;12.77;3.45;;;6.90;73.20;5.80;102457.00;;;;4920084;29;20086;-79
2021/03/28 03:49:22;;;;;;;14.18;3.55;;;6.90;72.00;5.80;102456.00;;;;4921959;29;20417;-79
2021/03/28 03:53:03;;;;;;;18.13;3.45;;;6.90;71.80;5.80;102450.00;;;;4920017;29;20051;-79
2021/03/28 03:55:42;;;;;;;17.48;3.42;;;6.90;71.90;5.80;102452.00;;;;4882230;29;20096;-79
2021/03/28 03:58:34;;;;;;;17.75;3.60;;;6.90;72.50;5.80;102454.00;;;;4915454;29;20044;-79
2021/03/28 04:01:38;;;;;;;17.38;3.70;;;6.90;71.70;5.90;102451.00;;;;4933306;28;20141;-79
2021/03/28 04:04:45;;;;;;;14.48;3.75;;;7.00;71.80;5.90;102460.00;;;;4921051;29;20098;-79
2021/03/28 04:08:00;;;;;;;15.18;3.20;;;7.00;72.60;5.90;102464.00;;;;4916603;29;20052;-79
2021/03/28 04:11:02;;;;;;;13.75;3.72;;;7.00;71.50;5.90;102475.00;;;;4920602;29;20050;-79
2021/03/28 04:13:48;;;;;;;10.93;3.20;;;7.00;72.70;6.00;102468.00;;;;4946232;29;20047;-78
2021/03/28 04:16:34;;;;;;;13.07;3.30;;;7.00;74.30;6.00;102470.00;;;;4968406;28;20043;-79
2021/03/28 04:19:16;;;;;;;12.50;3.47;;;7.10;72.40;6.00;102465.00;;;;4946248;29;20055;-79
2021/03/28 04:22:07;;;;;;;7.85;2.67;;;7.10;72.30;6.00;102467.00;;;;4951459;28;20047;-80
2021/03/28 04:24:41;;;;;;;10.27;3.30;;;7.10;72.00;6.00;102478.00;;;;4903639;29;20067;-79
2021/03/28 04:27:37;;;;;;;12.27;3.42;;;7.10;72.40;6.10;102469.00;;;;4926016;29;20062;-80
2021/03/28 04:30:18;;;;;;;14.40;3.22;;;7.20;73.50;6.10;102467.00;;;;4938516;28;20094;-79
2021/03/28 04:32:56;;;;;;;10.63;3.15;;;7.10;72.10;6.10;102465.00;;;;4936877;28;20054;-79
2021/03/28 04:35:41;;;;;;;14.77;3.33;;;7.20;72.40;6.10;102469.00;;;;4907822;28;20147;-79
2021/03/28 04:38:43;;;;;;;9.18;3.53;;;7.20;72.50;6.10;102464.00;;;;4923080;29;20047;-79
2021/03/28 04:41:31;;;;;;;24.90;3.65;;;7.20;73.00;6.10;102458.00;;;;4894585;28;20051;-80
2021/03/28 04:44:47;;;;;;;11.77;2.63;;;7.20;72.60;6.10;102471.00;;;;4907755;28;20058;-79
2021/03/28 04:47:46;;;;;;;13.32;3.33;;;7.20;72.60;6.20;102460.00;;;;4921210;29;20552;-79
2021/03/28 04:50:44;;;;;;;12.52;3.15;;;7.20;72.90;6.20;102462.00;;;;4936930;28;20082;-79
2021/03/28 04:53:44;;;;;;;11.35;3.33;;;7.30;73.00;6.20;102455.00;;;;4934770;28;20052;-79
2021/03/28 04:56:37;;;;;;;14.05;2.85;;;;;6.20;102464.00;;;;4929079;28;20050;-79
2021/03/28 04:59:28;;;;;;;11.80;3.05;;;7.20;73.10;6.20;102454.00;;;;4939938;28;20055;-79
2021/03/28 05:02:30;;;;;;;11.85;3.20;;;7.30;72.60;6.20;102449.00;;;;4935579;28;20058;-79
2021/03/28 05:05:31;;;;;;;17.48;3.10;;;7.30;72.80;6.20;102444.00;;;;4922998;29;20058;-79
2021/03/28 05:08:28;;;;;;;11.35;3.13;;;7.30;72.70;6.20;102444.00;;;;4916844;29;20533;-79
2021/03/28 05:11:20;;;;;;;10.98;2.90;;;;;6.30;102440.00;;;;4920167;29;20055;-79
2021/03/28 05:14:07;;;;;;;16.73;2.88;;;7.30;73.10;6.30;102433.00;;;;4918322;29;20047;-80
2021/03/28 05:17:02;;;;;;;9.70;2.83;;;7.30;73.90;6.30;102422.00;;;;4920938;29;20051;-79
2021/03/28 05:19:58;;;;;;;12.25;3.42;;;7.40;73.30;6.40;102441.00;;;;4906357;28;20063;-79
2021/03/28 05:22:36;;;;;;;10.50;2.92;;;7.40;72.70;6.40;102441.00;;;;4939399;28;20084;-79
2021/03/28 05:25:17;;;;;;;11.45;3.00;;;7.50;73.30;6.40;102439.00;;;;4920437;29;20047;-79
2021/03/28 05:28:25;;;;;;;10.88;2.70;;;7.50;73.40;6.40;102440.00;;;;4933801;28;20051;-79
2021/03/28 05:31:22;;;;;;;12.07;2.75;;;7.50;73.40;6.50;102457.00;;;;4914782;29;20086;-78
2021/03/28 05:34:13;;;;;;;12.88;3.00;;;7.50;72.60;6.50;102444.00;;;;4939630;28;20058;-79
2021/03/28 05:37:01;;;;;;;13.73;3.03;;;7.60;74.20;6.50;102453.00;;;;4935453;28;20059;-79
2021/03/28 05:39:52;;;;;;;8.48;2.88;;;7.50;73.10;6.60;102457.00;;;;4934105;28;20123;-79
2021/03/28 05:42:56;;;;;;;12.57;3.00;;;7.60;73.20;6.60;102445.00;;;;4935352;28;20055;-79
2021/03/28 05:45:56;;;;;;;13.23;2.70;;;7.60;73.00;6.60;102451.00;;;;4934471;28;20545;-78
2021/03/28 05:48:56;;;;;;;8.40;2.80;;;7.60;74.50;6.60;102449.00;;;;4940712;28;20042;-80
2021/03/28 05:51:49;;;;;;;11.82;2.55;;;7.70;73.60;6.60;102452.00;;;;4933646;28;20055;-78
2021/03/28 05:54:50;;;;;;;10.75;2.53;;;7.70;73.00;6.70;102453.00;;;;4938941;28;20051;-79
2021/03/28 05:58:00;;;;;;;12.35;2.83;;;7.70;73.10;6.70;102444.00;;;;4942424;28;20074;-79
2021/03/28 06:00:47;;;;;;;12.43;2.63;;;7.80;72.90;6.70;102428.00;;;;4923187;29;20512;-79
2021/03/28 06:04:16;;;;;;;8.65;2.85;;;7.80;72.90;6.80;102441.00;;;;4931212;28;20043;-81
2021/03/28 06:07:11;;;;;;;8.77;2.88;;;7.80;72.50;6.80;102422.00;;;;4918414;28;20047;-80
2021/03/28 06:10:12;;;;;;;11.25;3.22;;;7.90;72.70;6.90;102433.00;;;;4926381;28;20044;-80
2021/03/28 06:12:59;;;;;;;6.55;2.47;;;7.90;72.60;6.90;102444.00;;;;4910128;28;20067;-80
2021/03/28 06:15:43;;;;;;;10.60;3.33;;;7.90;72.70;6.90;102447.00;;;;4922470;28;20071;-78
2021/03/28 06:18:46;;;;;;;9.90;2.63;;;8.00;73.10;7.00;102444.00;;;;4907471;29;20091;-80
2021/03/28 06:21:49;;;;;;;9.23;2.40;;;8.00;72.60;7.00;102450.00;;;;4925428;29;20043;-80
2021/03/28 06:24:52;;;;;;;6.88;2.53;;;8.00;72.20;7.00;102437.00;;;;4911414;29;20142;-80
2021/03/28 06:28:00;;;;;;;10.77;2.90;;;8.00;72.50;7.00;102443.00;;;;4916714;29;20031;-80
2021/03/28 06:31:13;;;;;;;12.13;2.53;;;8.10;72.70;7.10;102444.00;;;;4913030;29;20470;-80
2021/03/28 06:34:04;;;;;;;13.38;2.78;;;8.10;72.80;7.10;102440.00;;;;4923063;28;20060;-80
2021/03/28 06:36:50;;;;;;;9.18;2.70;;;8.20;72.70;7.20;102449.00;;;;4927516;29;20075;-80
2021/03/28 06:40:03;;;;;;;10.55;2.40;;;8.20;72.70;7.20;102445.00;;;;4924397;29;20154;-80
2021/03/28 06:43:00;;;;;;;10.23;2.75;;;8.30;72.60;7.30;102440.00;;;;4908890;29;20146;-80
2021/03/28 06:45:45;;;;;;;11.52;2.88;;;;;7.30;102443.00;;;;4901251;28;20047;-80
2021/03/28 06:48:59;;;;;;;10.57;2.97;;;8.30;72.50;7.40;102446.00;;;;4924478;29;20050;-80
2021/03/28 06:51:42;;;;;;;9.57;2.65;;;8.40;72.60;7.40;102446.00;;;;4922438;29;20444;-79
2021/03/28 06:54:49;;;;;;;10.27;2.75;;;8.40;72.40;7.50;102460.00;;;;4923596;28;20052;-79
2021/03/28 06:58:03;;;;;;;10.55;2.88;;;8.50;72.30;7.50;102445.00;;;;4906458;29;20040;-79
2021/03/28 07:00:59;;;;;;;7.47;2.88;;;8.50;72.50;7.60;102451.00;;;;4929304;28;20056;-79
2021/03/28 07:03:41;;;;;;;11.55;2.88;;;8.60;72.40;7.70;102447.00;;;;4923546;29;20074;-79
2021/03/28 07:06:48;;;;;;;9.40;2.63;;;8.70;72.80;7.70;102457.00;;;;4921583;28;20043;-79
2021/03/28 07:09:32;;;;;;;8.90;2.80;;;8.70;72.70;7.80;102447.00;;;;4907701;29;20050;-80
2021/03/28 07:12:04;;;;;;;12.35;2.85;;;8.80;72.20;7.90;102467.00;;;;4937498;28;20051;-80
2021/03/28 07:15:13;;;;;;;12.35;3.00;;;8.90;72.80;8.00;102459.00;;;;4940796;28;20047;-79
2021/03/28 07:18:24;;;;;;;8.05;2.80;;;8.90;72.60;8.10;102474.00;;;;4915353;28;20052;-79
2021/03/28 07:21:18;;;;;;;11.68;2.72;;;9.00;72.20;8.10;102476.00;;;;4939244;28;20055;-79
2021/03/28 07:24:13;;;;;;;10.75;2.67;;;9.00;72.10;8.20;102471.00;;;;4921439;29;20058;-79
2021/03/28 07:27:13;;;;;;;12.85;3.00;;;9.10;72.90;8.30;102462.00;;;;4921209;29;20105;-79
2021/03/28 07:30:20;;;;;;;10.15;3.97;;;9.20;72.10;8.40;102471.00;;;;4935841;28;20052;-79
2021/03/28 07:33:29;;;;;;;9.40;2.95;;;9.30;72.20;8.50;102476.00;;;;4906332;28;20498;-79
2021/03/28 07:36:43;;;;;;;11.65;3.03;;;9.40;72.30;8.60;102470.00;;;;4880563;28;20102;-80
2021/03/28 07:39:51;;;;;;;9.60;3.40;;;;;8.70;102468.00;;;;4915374;29;20066;-80
2021/03/28 07:42:48;;;;;;;11.43;3.50;;;9.70;71.70;8.90;102478.00;;;;4906891;28;20087;-80
2021/03/28 07:45:56;;;;;;;15.65;5.63;;;9.80;71.30;9.10;102481.00;;;;4938989;28;20638;-79
2021/03/28 07:49:02;;;;;;;13.52;4.65;;;10.00;71.20;9.20;102467.00;;;;4939745;29;20043;-79
2021/03/28 07:52:23;;;;;;;13.07;3.60;;;10.10;71.30;9.50;102479.00;;;;4944659;28;20071;-79
2021/03/28 07:55:01;;;;;;;11.13;2.90;;;10.30;70.60;9.60;102480.00;;;;4953105;28;20055;-79
2021/03/28 07:57:49;;;;;;;;;;;10.50;71.00;9.70;102475.00;;;;4943721;28;20147;-79
2021/03/28 08:01:16;;;;;;;7.50;2.97;;;10.60;70.20;9.90;102473.00;;;;4896581;28;19933;-79
2021/03/28 08:03:45;;;;;;;11.70;3.30;;;10.70;70.30;10.00;102468.00;;;;4898928;29;20063;-79
2021/03/28 08:06:40;;;;;;;14.15;3.67;;;10.80;70.00;10.00;102467.00;;;;4912371;29;20058;-78
2021/03/28 08:09:34;;;;;;;9.98;3.08;;;10.80;69.80;10.00;102473.00;;;;4927363;28;20074;-79
2021/03/28 08:12:25;;;;;;;8.48;3.20;;;10.80;69.80;10.10;102489.00;;;;4922273;28;20673;-79
2021/03/28 08:15:20;;;;;;;15.27;3.15;;;;;10.20;102476.00;;;;4940272;28;20039;-79
2021/03/28 08:18:13;;;;;;;16.02;3.30;;;11.00;69.70;10.30;102481.00;;;;4942510;28;20047;-80
2021/03/28 08:20:56;;;;;;;10.48;2.92;;;11.10;69.30;10.40;102474.00;;;;4946848;28;20052;-80
2021/03/28 08:23:56;;;;;;;11.07;3.22;;;11.20;69.50;10.50;102479.00;;;;4941786;28;20043;-79
2021/03/28 08:26:41;;;;;;;10.32;2.60;;;11.30;69.30;10.60;102483.00;;;;4940909;28;20497;-80
2021/03/28 08:30:10;;;;;;;15.88;3.10;;;11.40;69.00;10.70;102475.00;;;;4920286;28;20075;-80
2021/03/28 08:32:53;;;;;;;11.45;3.30;;;11.60;69.20;10.90;102481.00;;;;4921434;29;20047;-79
2021/03/28 08:35:55;;;;;;;14.00;5.75;;;11.60;68.60;11.00;102482.00;;;;4911135;29;20057;-79
2021/03/28 08:38:57;;;;;;;10.63;3.40;;;11.70;68.40;11.10;102490.00;;;;4936682;28;20194;-79
2021/03/28 08:41:32;;;;;;;7.80;3.15;;;11.90;68.40;11.30;102476.00;;;;4909458;28;20075;-78
2021/03/28 08:44:15;;;;;;;14.18;2.92;;;12.00;67.90;11.40;102482.00;;;;4934063;28;20102;-78
2021/03/28 08:47:00;;;;;;;12.57;3.00;;;12.10;67.70;11.50;102489.00;;;;4915557;29;20055;-79
2021/03/28 08:50:05;;;;;;;14.85;2.90;;;12.20;67.10;11.60;102495.00;;;;4934552;28;20047;-86
2021/03/28 08:53:17;;;;;;;10.52;3.35;;;12.30;66.70;11.70;102488.00;;;;4920056;28;20059;-87
2021/03/28 08:56:33;;;;;;;13.40;3.45;;;12.30;66.30;11.70;102468.00;;;;4916475;28;20054;-80
2021/03/28 08:59:08;;;;;;;9.98;3.50;;;12.40;66.20;11.70;102475.00;;;;4906114;29;20146;-81
2021/03/28 09:02:06;;;;;;;9.63;2.95;;;12.40;66.00;11.80;102462.00;;;;4906827;28;20047;-77
2021/03/28 09:04:38;;;;;;;13.15;4.13;;;12.50;66.30;11.90;102464.00;;;;4934604;28;20051;-82
2021/03/28 09:07:13;;;;;;;13.27;2.90;;;12.60;65.70;12.00;102461.00;;;;4935847;28;20054;-78
2021/03/28 09:10:04;;;;;;;17.20;4.57;;;12.60;64.90;12.00;102463.00;;;;4931581;28;20632;-78
2021/03/28 09:12:54;;;;;;;14.93;3.20;;;12.70;65.10;12.10;102470.00;;;;4931540;28;20066;-78
2021/03/28 09:15:45;;;;;;;18.45;4.00;;;12.80;64.40;12.20;102458.00;;;;4938741;28;20061;-81
2021/03/28 09:18:30;;;;;;;14.15;3.53;;;;;12.30;102471.00;;;;4913556;28;20193;-78
2021/03/28 09:21:24;;;;;;;17.50;4.70;;;;;12.40;102444.00;;;;4934583;28;20059;-77
2021/03/28 09:24:30;;;;;;;12.55;2.95;;;13.10;63.70;12.50;102469.00;;;;4895358;28;20051;-77
2021/03/28 09:27:40;;;;;;;13.77;2.95;;;13.10;61.30;12.30;102460.00;;;;4919836;28;20643;-82
2021/03/28 09:30:46;;;;;;;11.38;2.85;;;13.00;63.60;12.20;102473.00;;;;4933986;28;20117;-80
2021/03/28 09:33:31;;;;;;;11.90;3.35;;;13.00;63.30;12.30;102460.00;;;;4878144;29;20109;-80
2021/03/28 09:36:25;;;;;;;15.88;3.38;;;13.00;63.30;12.40;102471.00;;;;4938954;28;20048;-85
2021/03/28 09:39:22;;;;;;;11.75;3.15;;;13.10;62.90;12.30;102474.00;;;;4918083;29;20047;-79
2021/03/28 09:42:44;;;;;;;11.88;2.60;;;13.10;63.10;12.40;102468.00;;;;4920991;29;20043;-80
2021/03/28 09:45:32;;;;;;;9.55;2.72;;;13.20;62.50;12.50;102481.00;;;;4941128;28;20058;-80
2021/03/28 09:48:41;;;;;;;14.82;2.70;;;13.20;60.50;12.50;102474.00;;;;4918235;28;20063;-80
2021/03/28 09:51:41;;;;;;;10.18;2.80;;;13.20;62.50;12.60;102468.00;;;;4936570;28;20051;-79
2021/03/28 09:54:22;;;;;;;10.85;2.70;;;13.30;62.20;12.70;102466.00;;;;4925970;29;20053;-80
2021/03/28 09:56:57;;;;;;;13.38;3.13;;;13.40;62.40;12.70;102466.00;;;;4915694;29;20127;-81
2021/03/28 10:00:05;;;;;;;9.07;2.83;;;13.40;61.70;12.80;102466.00;;;;4921672;29;20505;-81
2021/03/28 10:03:14;;;;;;;6.07;1.98;;;13.50;59.30;12.80;102467.00;;;;4941426;28;20047;-78
2021/03/28 10:05:41;;;;;;;10.43;2.42;;;13.50;60.50;12.90;102467.00;;;;4922293;28;20044;-84
2021/03/28 10:08:13;;;;;;;10.02;2.88;;;;;12.90;102461.00;;;;4938669;28;20746;-80
2021/03/28 10:10:47;;;;;;;7.85;2.25;;;13.60;59.30;12.90;102478.00;;;;4926541;29;20082;-83
2021/03/28 10:13:54;;;;;;;11.90;2.20;;;13.60;59.80;13.00;102497.00;;;;4918204;29;20047;-81
2021/03/28 10:17:04;;;;;;;11.38;1.92;;;13.60;58.70;12.90;102484.00;;;;4918572;28;20174;-80
2021/03/28 10:19:45;;;;;;;13.23;1.75;;;13.70;58.00;13.00;102474.00;;;;4936955;28;20051;-79
2021/03/28 10:22:36;;;;;;;6.95;1.75;;;13.80;56.00;13.10;102482.00;;;;4919644;29;20641;-80
2021/03/28 10:25:51;;;;;;;10.27;1.92;;;13.90;55.40;13.20;102479.00;;;;4941579;28;20051;-82
2021/03/28 10:28:59;;;;;;;7.22;2.10;;;14.00;55.40;13.40;102480.00;;;;4938969;28;20126;-81
2021/03/28 10:31:42;;;;;;;6.18;1.95;;;14.10;56.00;13.60;102484.00;;;;4917234;28;20175;-80
2021/03/28 10:34:38;;;;;;;5.53;1.63;;;14.20;54.10;13.60;102487.00;;;;4920669;29;20047;-81
2021/03/28 10:37:41;;;;;;;6.20;1.52;;;14.40;53.90;13.80;102480.00;;;;4906908;28;20047;-78
2021/03/28 10:40:31;;;;;;;11.85;1.77;;;14.50;52.00;13.90;102481.00;;;;4858393;28;20055;-78
2021/03/28 10:43:31;;;;;;;10.13;2.10;;;14.50;53.10;13.90;102479.00;;;;4923328;29;20078;-79
2021/03/28 10:46:53;;;;;;;5.90;1.60;;;14.60;53.80;14.00;102484.00;;;;4937798;28;20091;-79
2021/03/28 10:49:56;;;;;;;10.18;2.35;;;14.60;48.90;14.00;102485.00;;;;4843165;29;20604;-77
2021/03/28 10:53:15;;;;;;;6.55;1.92;;;14.70;53.70;13.90;102481.00;;;;4939184;28;20054;-84
2021/03/28 10:56:08;;;;;;;12.30;1.95;;;14.50;50.70;13.90;102502.00;;;;4923889;29;20039;-78
2021/03/28 10:59:29;;;;;;;7.80;2.00;;;14.50;52.90;13.70;102492.00;;;;4936833;28;20047;-79
2021/03/28 11:02:29;;;;;;;5.60;1.70;;;14.40;50.80;13.70;102493.00;;;;4941253;28;20390;-78
2021/03/28 11:05:28;;;;;;;8.93;1.92;;;14.40;52.80;13.60;102498.00;;;;4922585;29;20192;-79
2021/03/28 11:08:39;;;;;;;9.07;1.88;;;14.30;53.20;13.50;102494.00;;;;4925594;28;20129;-77
2021/03/28 11:11:24;;;;;;;7.25;1.83;;;14.30;52.00;13.60;102497.00;;;;4944238;28;20090;-81
2021/03/28 11:14:37;;;;;;;4.68;1.58;;;14.30;53.30;13.60;102506.00;;;;4940542;28;20614;-79
2021/03/28 11:17:19;;;;;;;6.82;1.88;;;14.30;54.10;13.60;102500.00;;;;4943924;29;20051;-81
2021/03/28 11:20:24;;;;;;;13.55;2.35;;;14.20;52.30;13.50;102502.00;;;;4937288;28;20077;-82
2021/03/28 11:23:15;;;;;;;7.03;2.08;;;14.20;53.50;13.50;102492.00;;;;4935128;28;20527;-82
2021/03/28 11:26:15;;;;;;;7.32;2.03;;;14.20;53.40;13.50;102522.00;;;;4909857;29;20105;-82
2021/03/28 11:29:06;;;;;;;11.52;2.20;;;14.20;53.60;13.50;102518.00;;;;4942992;28;20576;-82
2021/03/28 11:31:53;;;;;;;7.70;1.85;;;14.10;52.50;13.40;102510.00;;;;4960434;28;20058;-81
2021/03/28 11:34:35;;;;;;;6.95;1.60;;;14.10;54.20;13.40;102514.00;;;;4929312;29;20039;-82
2021/03/28 11:37:36;;;;;;;11.60;1.95;;;14.10;53.10;13.30;102514.00;;;;4930311;29;20039;-81
2021/03/28 11:40:17;;;;;;;6.63;1.70;;;14.10;54.50;13.30;102520.00;;;;4951073;29;20045;-82
2021/03/28 11:42:53;;;;;;;10.65;2.08;;;14.10;54.50;13.30;102515.00;;;;4957423;28;20047;-81
2021/03/28 11:45:46;;;;;;;12.15;2.08;;;14.00;53.80;13.20;102520.00;;;;4968245;28;20031;-81
2021/03/28 11:48:23;;;;;;;10.68;1.98;;;;;13.20;102519.00;;;;4947816;28;20031;-82
2021/03/28 11:50:49;;;;;;;7.93;2.03;;;14.00;55.20;13.20;102519.00;;;;4934856;28;20050;-82
2021/03/28 11:53:25;;;;;;;6.55;2.15;;;14.00;54.70;13.30;102510.00;;;;4920556;28;20035;-82
2021/03/28 11:55:52;;;;;;;8.10;1.88;;;13.90;54.60;13.20;102511.00;;;;4961006;28;20039;-82
2021/03/28 11:58:28;;;;;;;6.68;1.80;;;13.90;53.60;13.20;102509.00;;;;4948873;28;20760;-81
2021/03/28 12:00:59;;;;;;;9.40;1.95;;;13.90;55.00;13.10;102483.00;;;;4935792;28;20055;-82
2021/03/28 12:03:31;;;;;;;5.90;2.22;;;13.90;55.00;13.10;102493.00;;;;4928693;28;20094;-81
2021/03/28 12:06:08;;;;;;;16.13;4.97;;;13.90;55.30;13.10;102505.00;;;;4914788;29;20047;-81
2021/03/28 12:08:56;;;;;;;14.15;3.33;;;13.90;54.60;13.10;102499.00;;;;4911383;29;20687;-82
2021/03/28 12:11:47;;;;;;;7.28;1.85;;;13.80;53.60;13.10;102504.00;;;;4910001;28;20097;-81
2021/03/28 12:14:18;;;;;;;11.23;2.20;;;13.80;55.10;13.00;102512.00;;;;4937603;28;20043;-81
2021/03/28 12:17:11;;;;;;;9.40;2.17;;;13.80;54.90;13.00;102514.00;;;;4921382;29;20043;-82
2021/03/28 12:20:02;;;;;;;16.10;3.40;;;13.70;55.60;13.00;102514.00;;;;4923083;28;20094;-81
2021/03/28 12:22:37;;;;;;;9.38;2.22;;;13.70;55.60;13.00;102520.00;;;;4921071;29;20051;-81
2021/03/28 12:25:30;;;;;;;6.97;2.63;;;13.80;55.90;13.00;102512.00;;;;4923051;28;20082;-82
2021/03/28 12:27:56;;;;;;;9.65;2.25;;;;;13.10;102511.00;;;;4920108;29;20513;-81
2021/03/28 12:30:42;;;;;;;12.07;5.38;;;13.80;54.80;13.00;102506.00;;;;4937717;28;20430;-80
2021/03/28 12:33:14;;;;;;;13.57;2.90;;;13.80;55.20;13.00;102510.00;;;;4921239;28;20055;-82
2021/03/28 12:35:39;;;;;;;10.82;4.35;;;13.70;55.60;13.00;102509.00;;;;4933831;28;20111;-82
2021/03/28 12:38:28;;;;;;;11.98;3.97;;;13.70;55.30;13.00;102508.00;;;;4922433;28;20628;-82
2021/03/28 12:41:14;;;;;;;12.05;3.72;;;13.70;55.60;13.00;102504.00;;;;4928559;29;20047;-81
2021/03/28 12:43:44;;;;;;;13.57;4.88;;;13.80;55.60;13.00;102505.00;;;;4922741;28;20086;-82
2021/03/28 12:46:28;;;;;;;17.80;10.10;;;13.70;55.30;13.00;102506.00;;;;4931412;28;20542;-81
2021/03/28 12:49:34;;;;;;;14.07;3.78;;;13.70;54.70;13.00;102496.00;;;;4936435;28;20602;-81
2021/03/28 12:52:19;;;;;;;10.00;2.72;;;13.70;55.70;12.90;102504.00;;;;4937938;28;20510;-82